sensor_id;sensor_type;location;lat;lon;timestamp;pressure;altitude;pressure_sealevel;temperature;humidity
23427;BME280;41148;45.420;10.952;2023-02-12T00:02:01;102409.13;;;2.69;62.65
23427;BME280;41148;45.420;10.952;2023-02-12T00:04:30;102407.38;;;2.69;62.20
23427;BME280;41148;45.420;10.952;2023-02-12T00:06:58;102398.31;;;2.59;62.21
23427;BME280;41148;45.420;10.952;2023-02-12T00:09:26;102399.19;;;2.60;61.90
23427;BME280;41148;45.420;10.952;2023-02-12T00:11:53;102403.88;;;2.69;61.49
23427;BME280;41148;45.420;10.952;2023-02-12T00:14:20;102399.16;;;2.58;61.39
23427;BME280;41148;45.420;10.952;2023-02-12T00:16:48;102393.25;;;2.39;62.31
23427;BME280;41148;45.420;10.952;2023-02-12T00:19:15;102394.06;;;2.63;62.10
23427;BME280;41148;45.420;10.952;2023-02-12T00:21:43;102401.06;;;2.63;62.73
23427;BME280;41148;45.420;10.952;2023-02-12T00:24:10;102409.13;;;2.69;62.83
23427;BME280;41148;45.420;10.952;2023-02-12T00:26:38;102403.06;;;2.43;63.41
23427;BME280;41148;45.420;10.952;2023-02-12T00:29:05;102409.66;;;2.32;63.12
23427;BME280;41148;45.420;10.952;2023-02-12T00:31:33;102402.66;;;2.05;63.52
23427;BME280;41148;45.420;10.952;2023-02-12T00:34:00;102412.66;;;1.90;64.17
23427;BME280;41148;45.420;10.952;2023-02-12T00:36:29;102392.66;;;2.20;63.59
23427;BME280;41148;45.420;10.952;2023-02-12T00:38:58;102398.97;;;2.25;63.30
23427;BME280;41148;45.420;10.952;2023-02-12T00:41:26;102412.69;;;2.17;63.88
23427;BME280;41148;45.420;10.952;2023-02-12T00:43:54;102409.22;;;2.18;64.10
23427;BME280;41148;45.420;10.952;2023-02-12T00:46:22;102392.03;;;1.77;64.22
23427;BME280;41148;45.420;10.952;2023-02-12T00:48:49;102390.50;;;1.58;65.02
23427;BME280;41148;45.420;10.952;2023-02-12T00:51:19;102404.47;;;1.82;64.94
23427;BME280;41148;45.420;10.952;2023-02-12T00:53:47;102405.78;;;1.93;64.24
23427;BME280;41148;45.420;10.952;2023-02-12T00:56:14;102407.38;;;1.90;64.21
23427;BME280;41148;45.420;10.952;2023-02-12T00:58:41;102394.19;;;1.88;64.41
23427;BME280;41148;45.420;10.952;2023-02-12T01:01:09;102405.50;;;1.86;65.11
23427;BME280;41148;45.420;10.952;2023-02-12T01:03:36;102402.56;;;1.77;65.00
23427;BME280;41148;45.420;10.952;2023-02-12T01:06:05;102404.47;;;1.82;64.76
23427;BME280;41148;45.420;10.952;2023-02-12T01:08:32;102416.97;;;1.64;65.15
23427;BME280;41148;45.420;10.952;2023-02-12T01:11:02;102417.88;;;1.64;65.74
23427;BME280;41148;45.420;10.952;2023-02-12T01:13:31;102406.16;;;1.55;66.54
23427;BME280;41148;45.420;10.952;2023-02-12T01:16:04;102415.09;;;1.60;66.63
23427;BME280;41148;45.420;10.952;2023-02-12T01:18:33;102406.31;;;1.59;66.21
23427;BME280;41148;45.420;10.952;2023-02-12T01:21:01;102391.44;;;1.60;65.78
23427;BME280;41148;45.420;10.952;2023-02-12T01:23:34;102403.41;;;1.52;65.82
23427;BME280;41148;45.420;10.952;2023-02-12T01:26:01;102394.47;;;1.47;66.05
23427;BME280;41148;45.420;10.952;2023-02-12T01:28:29;102391.53;;;1.15;66.94
23427;BME280;41148;45.420;10.952;2023-02-12T01:30:56;102391.31;;;1.33;66.60
23427;BME280;41148;45.420;10.952;2023-02-12T01:33:24;102378.69;;;1.23;66.51
23427;BME280;41148;45.420;10.952;2023-02-12T01:35:51;102387.31;;;1.42;65.95
23427;BME280;41148;45.420;10.952;2023-02-12T01:38:19;102371.34;;;1.36;65.91
23427;BME280;41148;45.420;10.952;2023-02-12T01:40:46;102379.97;;;1.34;66.36
23427;BME280;41148;45.420;10.952;2023-02-12T01:43:14;102365.53;;;1.45;65.88
23427;BME280;41148;45.420;10.952;2023-02-12T01:45:48;102381.72;;;1.33;66.28
23427;BME280;41148;45.420;10.952;2023-02-12T01:48:16;102363.13;;;1.27;66.61
23427;BME280;41148;45.420;10.952;2023-02-12T01:50:47;102359.03;;;1.11;67.06
23427;BME280;41148;45.420;10.952;2023-02-12T01:53:15;102359.47;;;1.24;66.38
23427;BME280;41148;45.420;10.952;2023-02-12T01:55:48;102367.66;;;1.07;66.75
23427;BME280;41148;45.420;10.952;2023-02-12T01:58:17;102362.56;;;1.12;67.04
23427;BME280;41148;45.420;10.952;2023-02-12T02:00:45;102366.41;;;1.22;66.79
23427;BME280;41148;45.420;10.952;2023-02-12T02:03:13;102349.81;;;0.99;67.04
23427;BME280;41148;45.420;10.952;2023-02-12T02:05:50;102362.50;;;1.10;67.24
23427;BME280;41148;45.420;10.952;2023-02-12T02:08:21;102375.78;;;1.15;66.74
23427;BME280;41148;45.420;10.952;2023-02-12T02:10:49;102369.63;;;1.14;66.75
23427;BME280;41148;45.420;10.952;2023-02-12T02:13:17;102369.31;;;1.29;66.12
23427;BME280;41148;45.420;10.952;2023-02-12T02:16:13;102357.16;;;1.07;66.76
23427;BME280;41148;45.420;10.952;2023-02-12T02:19:01;102365.31;;;1.39;66.46
23427;BME280;41148;45.420;10.952;2023-02-12T02:21:44;102350.44;;;1.39;65.89
23427;BME280;41148;45.420;10.952;2023-02-12T02:24:39;102358.59;;;1.47;65.81
23427;BME280;41148;45.420;10.952;2023-02-12T02:27:17;102342.03;;;1.50;65.61
23427;BME280;41148;45.420;10.952;2023-02-12T02:32:49;102348.59;;;1.37;66.28
23427;BME280;41148;45.420;10.952;2023-02-12T02:35:37;102344.47;;;1.20;66.41
23427;BME280;41148;45.420;10.952;2023-02-12T02:41:00;102335.84;;;1.24;66.45
23427;BME280;41148;45.420;10.952;2023-02-12T02:43:32;102324.16;;;1.15;66.72
23427;BME280;41148;45.420;10.952;2023-02-12T02:46:06;102324.13;;;1.14;66.83
23427;BME280;41148;45.420;10.952;2023-02-12T02:48:37;102319.19;;;1.23;66.42
23427;BME280;41148;45.420;10.952;2023-02-12T02:51:11;102317.88;;;1.10;67.22
23427;BME280;41148;45.420;10.952;2023-02-12T02:53:43;102317.28;;;1.18;66.63
23427;BME280;41148;45.420;10.952;2023-02-12T02:56:15;102315.91;;;1.05;66.84
23427;BME280;41148;45.420;10.952;2023-02-12T02:58:57;102317.38;;;1.21;66.37
23427;BME280;41148;45.420;10.952;2023-02-12T03:01:41;102324.50;;;1.25;66.58
23427;BME280;41148;45.420;10.952;2023-02-12T03:04:24;102311.56;;;1.29;66.34
23427;BME280;41148;45.420;10.952;2023-02-12T03:06:58;102299.41;;;1.33;65.86
23427;BME280;41148;45.420;10.952;2023-02-12T03:09:35;102315.25;;;1.10;66.39
23427;BME280;41148;45.420;10.952;2023-02-12T03:12:11;102308.69;;;1.23;65.99
23427;BME280;41148;45.420;10.952;2023-02-12T03:14:46;102306.25;;;1.28;66.04
23427;BME280;41148;45.420;10.952;2023-02-12T03:17:23;102315.72;;;1.24;65.97
23427;BME280;41148;45.420;10.952;2023-02-12T03:20:11;102313.84;;;1.20;66.78
23427;BME280;41148;45.420;10.952;2023-02-12T03:22:46;102301.28;;;1.35;65.88
23427;BME280;41148;45.420;10.952;2023-02-12T03:25:17;102292.94;;;1.47;65.45
23427;BME280;41148;45.420;10.952;2023-02-12T03:28:19;102289.78;;;1.57;65.19
23427;BME280;41148;45.420;10.952;2023-02-12T03:36:40;102287.03;;;1.54;65.15
23427;BME280;41148;45.420;10.952;2023-02-12T03:39:27;102297.44;;;1.51;65.47
23427;BME280;41148;45.420;10.952;2023-02-12T03:42:17;102295.94;;;1.34;65.83
23427;BME280;41148;45.420;10.952;2023-02-12T03:45:00;102277.81;;;1.65;65.13
23427;BME280;41148;45.420;10.952;2023-02-12T03:53:09;102292.28;;;1.29;67.05
23427;BME280;41148;45.420;10.952;2023-02-12T03:55:39;102295.47;;;0.96;66.92
23427;BME280;41148;45.420;10.952;2023-02-12T03:58:12;102308.81;;;1.02;67.19
23427;BME280;41148;45.420;10.952;2023-02-12T04:00:42;102310.22;;;0.93;67.74
23427;BME280;41148;45.420;10.952;2023-02-12T04:03:10;102308.16;;;1.08;67.38
23427;BME280;41148;45.420;10.952;2023-02-12T04:05:38;102319.91;;;1.18;67.05
23427;BME280;41148;45.420;10.952;2023-02-12T04:08:07;102316.97;;;1.10;67.19
23427;BME280;41148;45.420;10.952;2023-02-12T04:10:43;102310.59;;;1.03;67.30
23427;BME280;41148;45.420;10.952;2023-02-12T04:13:32;102305.78;;;1.15;67.41
23427;BME280;41148;45.420;10.952;2023-02-12T04:18:54;102318.22;;;1.20;66.96
23427;BME280;41148;45.420;10.952;2023-02-12T04:27:25;102299.25;;;1.04;67.87
23427;BME280;41148;45.420;10.952;2023-02-12T04:30:05;102314.69;;;1.19;67.95
23427;BME280;41148;45.420;10.952;2023-02-12T04:38:05;102319.09;;;1.20;67.49
23427;BME280;41148;45.420;10.952;2023-02-12T04:40:35;102313.44;;;1.33;67.47
23427;BME280;41148;45.420;10.952;2023-02-12T04:43:04;102311.78;;;1.35;66.77
23427;BME280;41148;45.420;10.952;2023-02-12T04:45:33;102300.44;;;1.36;66.75
23427;BME280;41148;45.420;10.952;2023-02-12T04:48:01;102305.69;;;1.36;66.93
23427;BME280;41148;45.420;10.952;2023-02-12T04:50:39;102305.94;;;1.44;67.03
23427;BME280;41148;45.420;10.952;2023-02-12T04:53:08;102308.69;;;1.47;66.70
23427;BME280;41148;45.420;10.952;2023-02-12T04:55:36;102301.19;;;1.58;66.42
23427;BME280;41148;45.420;10.952;2023-02-12T04:58:04;102300.47;;;1.63;66.48
23427;BME280;41148;45.420;10.952;2023-02-12T05:00:32;102296.41;;;1.46;66.90
23427;BME280;41148;45.420;10.952;2023-02-12T05:02:59;102307.44;;;1.36;67.38
23427;BME280;41148;45.420;10.952;2023-02-12T05:05:27;102304.84;;;1.37;68.21
23427;BME280;41148;45.420;10.952;2023-02-12T05:07:54;102306.91;;;1.22;68.00
23427;BME280;41148;45.420;10.952;2023-02-12T05:10:22;102306.31;;;1.29;68.30
23427;BME280;41148;45.420;10.952;2023-02-12T05:12:53;102300.78;;;1.22;68.05
23427;BME280;41148;45.420;10.952;2023-02-12T05:15:21;102312.34;;;1.27;67.60
23427;BME280;41148;45.420;10.952;2023-02-12T05:17:48;102299.56;;;0.88;69.07
23427;BME280;41148;45.420;10.952;2023-02-12T05:20:16;102298.50;;;1.07;69.17
23427;BME280;41148;45.420;10.952;2023-02-12T05:22:43;102299.00;;;1.21;68.23
23427;BME280;41148;45.420;10.952;2023-02-12T05:25:11;102306.78;;;1.18;67.87
23427;BME280;41148;45.420;10.952;2023-02-12T05:27:38;102284.94;;;1.19;68.00
23427;BME280;41148;45.420;10.952;2023-02-12T05:30:06;102298.66;;;1.35;67.34
23427;BME280;41148;45.420;10.952;2023-02-12T05:32:35;102293.25;;;1.07;68.26
23427;BME280;41148;45.420;10.952;2023-02-12T05:35:03;102291.44;;;1.06;68.27
23427;BME280;41148;45.420;10.952;2023-02-12T05:37:33;102294.34;;;1.13;68.18
23427;BME280;41148;45.420;10.952;2023-02-12T05:40:03;102292.66;;;1.15;67.97
23427;BME280;41148;45.420;10.952;2023-02-12T05:42:30;102288.16;;;1.11;68.11
23427;BME280;41148;45.420;10.952;2023-02-12T05:44:58;102282.63;;;1.04;68.02
23427;BME280;41148;45.420;10.952;2023-02-12T05:47:25;102282.34;;;0.96;68.12
23427;BME280;41148;45.420;10.952;2023-02-12T05:49:53;102300.06;;;0.78;69.47
23427;BME280;41148;45.420;10.952;2023-02-12T05:52:20;102304.88;;;0.90;69.56
23427;BME280;41148;45.420;10.952;2023-02-12T05:54:48;102295.41;;;0.95;69.55
23427;BME280;41148;45.420;10.952;2023-02-12T05:57:16;102300.28;;;1.08;68.99
23427;BME280;41148;45.420;10.952;2023-02-12T05:59:44;102312.06;;;1.19;68.59
23427;BME280;41148;45.420;10.952;2023-02-12T06:02:11;102326.31;;;1.26;68.53
23427;BME280;41148;45.420;10.952;2023-02-12T06:04:39;102308.00;;;1.27;67.83
23427;BME280;41148;45.420;10.952;2023-02-12T06:07:06;102305.09;;;1.20;68.50
23427;BME280;41148;45.420;10.952;2023-02-12T06:09:34;102314.78;;;1.22;68.72
23427;BME280;41148;45.420;10.952;2023-02-12T06:12:02;102325.09;;;1.16;68.35
23427;BME280;41148;45.420;10.952;2023-02-12T06:14:29;102335.97;;;1.03;69.00
23427;BME280;41148;45.420;10.952;2023-02-12T06:16:58;102340.25;;;1.25;68.79
23427;BME280;41148;45.420;10.952;2023-02-12T06:19:25;102346.41;;;1.25;68.87
23427;BME280;41148;45.420;10.952;2023-02-12T06:21:52;102351.91;;;1.07;69.04
23427;BME280;41148;45.420;10.952;2023-02-12T06:24:20;102341.81;;;0.96;69.51
23427;BME280;41148;45.420;10.952;2023-02-12T06:26:51;102362.00;;;0.97;69.81
23427;BME280;41148;45.420;10.952;2023-02-12T06:29:19;102345.22;;;0.93;69.65
23427;BME280;41148;45.420;10.952;2023-02-12T06:31:47;102366.25;;;0.95;69.83
23427;BME280;41148;45.420;10.952;2023-02-12T06:34:16;102364.63;;;0.97;69.40
23427;BME280;41148;45.420;10.952;2023-02-12T06:36:45;102375.38;;;1.04;69.70
23427;BME280;41148;45.420;10.952;2023-02-12T06:39:15;102374.09;;;0.93;70.06
23427;BME280;41148;45.420;10.952;2023-02-12T06:41:43;102377.91;;;1.01;69.44
23427;BME280;41148;45.420;10.952;2023-02-12T06:44:11;102381.47;;;1.03;69.61
23427;BME280;41148;45.420;10.952;2023-02-12T06:46:39;102385.53;;;0.95;70.12
23427;BME280;41148;45.420;10.952;2023-02-12T06:49:07;102381.16;;;0.96;69.96
23427;BME280;41148;45.420;10.952;2023-02-12T06:51:34;102389.13;;;0.97;69.68
23427;BME280;41148;45.420;10.952;2023-02-12T06:54:04;102392.34;;;0.90;69.37
23427;BME280;41148;45.420;10.952;2023-02-12T06:56:32;102386.56;;;0.99;69.05
23427;BME280;41148;45.420;10.952;2023-02-12T06:58:59;102390.91;;;0.98;68.98
23427;BME280;41148;45.420;10.952;2023-02-12T07:01:28;102386.78;;;1.05;69.40
23427;BME280;41148;45.420;10.952;2023-02-12T07:03:56;102376.91;;;1.22;69.18
23427;BME280;41148;45.420;10.952;2023-02-12T07:06:25;102382.91;;;1.18;70.00
23427;BME280;41148;45.420;10.952;2023-02-12T07:08:56;102365.97;;;1.09;69.96
23427;BME280;41148;45.420;10.952;2023-02-12T07:11:26;102371.28;;;1.11;70.68
23427;BME280;41148;45.420;10.952;2023-02-12T07:13:54;102377.59;;;1.16;69.78
23427;BME280;41148;45.420;10.952;2023-02-12T07:16:21;102390.13;;;1.01;69.25
23427;BME280;41148;45.420;10.952;2023-02-12T07:18:49;102400.22;;;0.90;70.00
23427;BME280;41148;45.420;10.952;2023-02-12T07:21:18;102426.78;;;0.98;70.49
23427;BME280;41148;45.420;10.952;2023-02-12T07:23:50;102410.66;;;1.11;70.27
23427;BME280;41148;45.420;10.952;2023-02-12T07:26:19;102402.47;;;1.26;70.31
23427;BME280;41148;45.420;10.952;2023-02-12T07:28:48;102398.09;;;1.26;70.04
23427;BME280;41148;45.420;10.952;2023-02-12T07:31:18;102421.00;;;1.30;69.75
23427;BME280;41148;45.420;10.952;2023-02-12T07:33:47;102423.13;;;1.40;69.62
23427;BME280;41148;45.420;10.952;2023-02-12T07:36:18;102426.19;;;1.53;69.16
23427;BME280;41148;45.420;10.952;2023-02-12T07:38:46;102429.63;;;1.74;68.40
23427;BME280;41148;45.420;10.952;2023-02-12T07:43:46;102445.13;;;1.92;68.40
23427;BME280;41148;45.420;10.952;2023-02-12T07:46:20;102433.16;;;2.00;68.20
23427;BME280;41148;45.420;10.952;2023-02-12T07:48:50;102439.44;;;2.04;68.27
23427;BME280;41148;45.420;10.952;2023-02-12T07:51:17;102425.44;;;2.05;67.88
23427;BME280;41148;45.420;10.952;2023-02-12T07:53:46;102425.75;;;2.14;68.05
23427;BME280;41148;45.420;10.952;2023-02-12T07:56:17;102427.59;;;2.16;68.14
23427;BME280;41148;45.420;10.952;2023-02-12T07:58:47;102429.94;;;2.34;68.14
23427;BME280;41148;45.420;10.952;2023-02-12T08:01:22;102445.19;;;2.44;68.63
23427;BME280;41148;45.420;10.952;2023-02-12T08:03:50;102444.00;;;2.35;68.50
23427;BME280;41148;45.420;10.952;2023-02-12T08:06:20;102423.09;;;2.39;67.63
23427;BME280;41148;45.420;10.952;2023-02-12T08:08:54;102440.38;;;2.58;67.55
23427;BME280;41148;45.420;10.952;2023-02-12T08:11:23;102446.13;;;2.73;67.72
23427;BME280;41148;45.420;10.952;2023-02-12T08:13:50;102440.56;;;2.91;66.96
23427;BME280;41148;45.420;10.952;2023-02-12T08:16:20;102443.69;;;3.08;66.22
23427;BME280;41148;45.420;10.952;2023-02-12T08:18:48;102453.47;;;3.10;66.81
23427;BME280;41148;45.420;10.952;2023-02-12T08:21:21;102472.22;;;3.21;68.10
23427;BME280;41148;45.420;10.952;2023-02-12T08:23:49;102474.31;;;3.33;67.38
23427;BME280;41148;45.420;10.952;2023-02-12T08:26:20;102473.00;;;3.77;65.51
23427;BME280;41148;45.420;10.952;2023-02-12T08:28:54;102470.28;;;5.52;60.38
23427;BME280;41148;45.420;10.952;2023-02-12T08:31:24;102469.66;;;7.80;53.13
23427;BME280;41148;45.420;10.952;2023-02-12T08:33:53;102463.16;;;9.57;48.00
23427;BME280;41148;45.420;10.952;2023-02-12T08:36:23;102458.97;;;11.02;43.95
23427;BME280;41148;45.420;10.952;2023-02-12T08:38:51;102450.09;;;10.77;43.56
23427;BME280;41148;45.420;10.952;2023-02-12T08:41:22;102472.97;;;9.67;45.91
23427;BME280;41148;45.420;10.952;2023-02-12T08:43:54;102466.09;;;10.51;44.35
23427;BME280;41148;45.420;10.952;2023-02-12T08:46:22;102464.28;;;10.99;42.96
23427;BME280;41148;45.420;10.952;2023-02-12T08:48:54;102463.22;;;9.73;44.57
23427;BME280;41148;45.420;10.952;2023-02-12T08:51:25;102468.66;;;10.04;43.77
23427;BME280;41148;45.420;10.952;2023-02-12T08:53:55;102463.34;;;11.18;41.56
23427;BME280;41148;45.420;10.952;2023-02-12T08:56:24;102439.16;;;11.80;40.24
23427;BME280;41148;45.420;10.952;2023-02-12T08:58:51;102447.91;;;12.04;39.48
23427;BME280;41148;45.420;10.952;2023-02-12T09:01:21;102447.09;;;11.92;39.81
23427;BME280;41148;45.420;10.952;2023-02-12T09:03:49;102449.25;;;12.65;39.08
23427;BME280;41148;45.420;10.952;2023-02-12T09:06:19;102447.28;;;12.87;38.04
23427;BME280;41148;45.420;10.952;2023-02-12T09:08:47;102462.78;;;12.47;38.48
23427;BME280;41148;45.420;10.952;2023-02-12T09:11:17;102450.78;;;11.60;39.73
23427;BME280;41148;45.420;10.952;2023-02-12T09:13:46;102454.53;;;10.31;42.79
23427;BME280;41148;45.420;10.952;2023-02-12T09:16:13;102458.75;;;9.65;44.77
23427;BME280;41148;45.420;10.952;2023-02-12T09:18:41;102458.47;;;9.08;45.89
23427;BME280;41148;45.420;10.952;2023-02-12T09:21:11;102456.88;;;8.24;48.22
23427;BME280;41148;45.420;10.952;2023-02-12T09:23:39;102469.09;;;8.10;49.00
23427;BME280;41148;45.420;10.952;2023-02-12T09:26:09;102468.88;;;7.88;49.74
23427;BME280;41148;45.420;10.952;2023-02-12T09:28:38;102466.19;;;7.85;49.79
23427;BME280;41148;45.420;10.952;2023-02-12T09:31:14;102469.66;;;7.81;48.94
23427;BME280;41148;45.420;10.952;2023-02-12T09:33:42;102461.31;;;7.47;49.86
23427;BME280;41148;45.420;10.952;2023-02-12T09:36:12;102471.66;;;7.31;50.72
23427;BME280;41148;45.420;10.952;2023-02-12T09:38:41;102471.53;;;7.22;51.46
23427;BME280;41148;45.420;10.952;2023-02-12T09:44:28;102482.22;;;7.26;51.81
23427;BME280;41148;45.420;10.952;2023-02-12T09:52:30;102472.53;;;7.28;50.30
23427;BME280;41148;45.420;10.952;2023-02-12T09:54:58;102469.38;;;7.55;49.71
23427;BME280;41148;45.420;10.952;2023-02-12T09:57:29;102473.94;;;7.67;49.67
23427;BME280;41148;45.420;10.952;2023-02-12T10:00:04;102463.19;;;7.56;49.65
23427;BME280;41148;45.420;10.952;2023-02-12T10:02:35;102460.41;;;7.47;49.13
23427;BME280;41148;45.420;10.952;2023-02-12T10:05:05;102466.75;;;7.58;47.64
23427;BME280;41148;45.420;10.952;2023-02-12T10:08:01;102487.06;;;7.56;47.94
23427;BME280;41148;45.420;10.952;2023-02-12T10:10:49;102488.06;;;7.64;46.85
23427;BME280;41148;45.420;10.952;2023-02-12T10:13:29;102491.69;;;7.72;46.33
23427;BME280;41148;45.420;10.952;2023-02-12T10:16:13;102493.63;;;7.89;46.73
23427;BME280;41148;45.420;10.952;2023-02-12T10:18:47;102494.59;;;7.95;46.12
23427;BME280;41148;45.420;10.952;2023-02-12T10:21:51;102496.47;;;8.04;46.16
23427;BME280;41148;45.420;10.952;2023-02-12T10:27:00;102496.63;;;8.18;44.39
23427;BME280;41148;45.420;10.952;2023-02-12T10:29:33;102494.91;;;8.23;44.79
23427;BME280;41148;45.420;10.952;2023-02-12T10:32:18;102493.44;;;8.49;44.57
23427;BME280;41148;45.420;10.952;2023-02-12T10:34:49;102493.47;;;8.51;45.13
23427;BME280;41148;45.420;10.952;2023-02-12T10:39:59;102488.72;;;8.24;45.30
23427;BME280;41148;45.420;10.952;2023-02-12T10:45:04;102475.66;;;8.41;45.09
23427;BME280;41148;45.420;10.952;2023-02-12T10:47:32;102474.94;;;8.60;44.64
23427;BME280;41148;45.420;10.952;2023-02-12T10:50:01;102476.72;;;8.61;44.39
23427;BME280;41148;45.420;10.952;2023-02-12T10:52:39;102461.59;;;8.55;43.65
23427;BME280;41148;45.420;10.952;2023-02-12T10:55:30;102474.97;;;8.65;42.50
23427;BME280;41148;45.420;10.952;2023-02-12T10:58:00;102470.56;;;8.67;42.99
23427;BME280;41148;45.420;10.952;2023-02-12T11:05:39;102473.44;;;8.96;42.66
23427;BME280;41148;45.420;10.952;2023-02-12T11:11:11;102473.44;;;8.94;41.30
23427;BME280;41148;45.420;10.952;2023-02-12T11:13:44;102479.69;;;8.99;41.05
23427;BME280;41148;45.420;10.952;2023-02-12T11:16:12;102479.69;;;9.01;40.91
23427;BME280;41148;45.420;10.952;2023-02-12T11:18:40;102480.63;;;9.07;40.94
23427;BME280;41148;45.420;10.952;2023-02-12T11:21:09;102471.84;;;9.25;40.98
23427;BME280;41148;45.420;10.952;2023-02-12T11:23:40;102473.56;;;9.15;41.64
23427;BME280;41148;45.420;10.952;2023-02-12T11:29:29;102472.72;;;9.20;41.70
23427;BME280;41148;45.420;10.952;2023-02-12T11:32:05;102476.34;;;9.31;41.07
23427;BME280;41148;45.420;10.952;2023-02-12T11:34:35;102479.00;;;9.35;40.77
23427;BME280;41148;45.420;10.952;2023-02-12T11:37:03;102471.94;;;9.39;40.48
23427;BME280;41148;45.420;10.952;2023-02-12T11:39:36;102482.59;;;9.43;40.49
23427;BME280;41148;45.420;10.952;2023-02-12T11:42:16;102480.91;;;9.59;39.14
23427;BME280;41148;45.420;10.952;2023-02-12T11:45:02;102485.44;;;9.75;40.07
23427;BME280;41148;45.420;10.952;2023-02-12T11:47:33;102486.38;;;9.97;39.48
23427;BME280;41148;45.420;10.952;2023-02-12T11:50:08;102484.59;;;9.92;40.13
23427;BME280;41148;45.420;10.952;2023-02-12T11:52:42;102487.22;;;9.84;39.92
23427;BME280;41148;45.420;10.952;2023-02-12T11:55:23;102484.59;;;9.93;39.94
23427;BME280;41148;45.420;10.952;2023-02-12T11:57:52;102484.53;;;9.83;39.85
23427;BME280;41148;45.420;10.952;2023-02-12T12:00:32;102483.63;;;9.73;39.88
23427;BME280;41148;45.420;10.952;2023-02-12T12:03:23;102483.66;;;9.76;40.43
23427;BME280;41148;45.420;10.952;2023-02-12T12:05:56;102485.41;;;9.68;40.70
23427;BME280;41148;45.420;10.952;2023-02-12T12:08:38;102488.97;;;9.76;40.90
23427;BME280;41148;45.420;10.952;2023-02-12T12:11:13;102478.31;;;9.71;41.83
23427;BME280;41148;45.420;10.952;2023-02-12T12:13:47;102474.75;;;9.69;41.86
23427;BME280;41148;45.420;10.952;2023-02-12T12:16:31;102467.66;;;9.74;40.79
23427;BME280;41148;45.420;10.952;2023-02-12T12:19:23;102460.59;;;9.78;40.55
23427;BME280;41148;45.420;10.952;2023-02-12T12:22:41;102454.41;;;9.90;40.87
23427;BME280;41148;45.420;10.952;2023-02-12T12:25:17;102462.44;;;9.97;40.23
23427;BME280;41148;45.420;10.952;2023-02-12T12:33:04;102449.13;;;10.11;39.22
23427;BME280;41148;45.420;10.952;2023-02-12T12:35:46;102456.31;;;10.24;39.31
23427;BME280;41148;45.420;10.952;2023-02-12T12:47:07;102446.53;;;10.42;40.84
23427;BME280;41148;45.420;10.952;2023-02-12T12:57:51;102454.56;;;10.52;41.70
23427;BME280;41148;45.420;10.952;2023-02-12T13:00:33;102443.00;;;10.58;42.08
23427;BME280;41148;45.420;10.952;2023-02-12T13:12:57;102452.78;;;10.65;42.10
23427;BME280;41148;45.420;10.952;2023-02-12T13:17:49;102451.00;;;10.73;41.84
23427;BME280;41148;45.420;10.952;2023-02-12T13:20:38;102451.88;;;10.74;40.81
23427;BME280;41148;45.420;10.952;2023-02-12T13:25:53;102440.25;;;11.08;39.10
23427;BME280;41148;45.420;10.952;2023-02-12T13:28:35;102435.81;;;11.21;37.99
23427;BME280;41148;45.420;10.952;2023-02-12T13:31:07;102425.94;;;11.37;36.64
23427;BME280;41148;45.420;10.952;2023-02-12T13:34:02;102426.72;;;11.69;32.58
23427;BME280;41148;45.420;10.952;2023-02-12T13:36:34;102430.22;;;11.85;30.67
23427;BME280;41148;45.420;10.952;2023-02-12T13:39:14;102438.13;;;12.02;30.77
23427;BME280;41148;45.420;10.952;2023-02-12T13:41:55;102442.59;;;12.00;30.24
23427;BME280;41148;45.420;10.952;2023-02-12T13:47:13;102427.47;;;12.00;29.71
23427;BME280;41148;45.420;10.952;2023-02-12T13:52:52;102440.75;;;12.11;29.69
23427;BME280;41148;45.420;10.952;2023-02-12T13:55:33;102437.97;;;12.25;28.82
23427;BME280;41148;45.420;10.952;2023-02-12T14:01:08;102438.69;;;12.50;26.52
23427;BME280;41148;45.420;10.952;2023-02-12T14:03:37;102435.16;;;12.43;26.45
23427;BME280;41148;45.420;10.952;2023-02-12T14:06:20;102447.56;;;12.52;26.29
23427;BME280;41148;45.420;10.952;2023-02-12T14:09:08;102451.22;;;12.42;26.00
23427;BME280;41148;45.420;10.952;2023-02-12T14:11:47;102455.50;;;12.63;25.03
23427;BME280;41148;45.420;10.952;2023-02-12T14:14:38;102453.78;;;12.57;24.45
23427;BME280;41148;45.420;10.952;2023-02-12T14:25:35;102459.22;;;12.46;26.76
23427;BME280;41148;45.420;10.952;2023-02-12T14:30:38;102464.56;;;12.45;27.72
23427;BME280;41148;45.420;10.952;2023-02-12T14:35:35;102464.63;;;12.34;28.19
23427;BME280;41148;45.420;10.952;2023-02-12T14:40:47;102465.59;;;12.28;28.99
23427;BME280;41148;45.420;10.952;2023-02-12T14:48:56;102470.94;;;12.22;30.08
23427;BME280;41148;45.420;10.952;2023-02-12T14:57:29;102478.94;;;12.25;30.47
23427;BME280;41148;45.420;10.952;2023-02-12T15:00:03;102490.56;;;12.20;30.78
23427;BME280;41148;45.420;10.952;2023-02-12T15:02:34;102486.09;;;12.23;31.11
23427;BME280;41148;45.420;10.952;2023-02-12T15:05:14;102495.03;;;12.15;31.45
23427;BME280;41148;45.420;10.952;2023-02-12T15:07:46;102483.47;;;12.13;31.78
23427;BME280;41148;45.420;10.952;2023-02-12T15:10:18;102482.63;;;12.06;32.19
23427;BME280;41148;45.420;10.952;2023-02-12T15:18:23;102473.75;;;12.02;32.62
23427;BME280;41148;45.420;10.952;2023-02-12T15:20:59;102481.72;;;12.06;32.95
23427;BME280;41148;45.420;10.952;2023-02-12T15:23:40;102484.44;;;11.96;33.15
23427;BME280;41148;45.420;10.952;2023-02-12T15:26:14;102482.69;;;11.94;33.36
23427;BME280;41148;45.420;10.952;2023-02-12T15:28:46;102484.47;;;11.95;33.48
23427;BME280;41148;45.420;10.952;2023-02-12T15:31:16;102491.56;;;12.00;33.65
23427;BME280;41148;45.420;10.952;2023-02-12T15:33:47;102500.50;;;11.98;33.84
23427;BME280;41148;45.420;10.952;2023-02-12T15:36:18;102491.63;;;11.91;33.87